createdAt,value
2018-11-01T00:00:10.322Z,21.76
2018-11-01T00:00:41.915Z,21.76
2018-11-01T00:01:13.508Z,21.75
2018-11-01T00:01:45.095Z,21.75
2018-11-01T00:02:16.683Z,21.74
2018-11-01T00:02:48.267Z,21.74
2018-11-01T00:03:19.866Z,21.74
2018-11-01T00:03:51.493Z,21.72
2018-11-01T00:04:23.088Z,21.72
2018-11-01T00:04:54.666Z,21.71
2018-11-01T00:05:26.265Z,21.71
2018-11-01T00:05:57.855Z,21.69
2018-11-01T00:06:29.441Z,21.69
2018-11-01T00:07:01.028Z,21.68
2018-11-01T00:07:32.607Z,21.67
2018-11-01T00:08:04.215Z,21.67
2018-11-01T00:08:35.826Z,21.65
2018-11-01T00:09:07.409Z,21.64
2018-11-01T00:09:39.017Z,21.64
2018-11-01T00:10:10.626Z,21.63
2018-11-01T00:10:42.230Z,21.62
2018-11-01T00:11:13.820Z,21.63
2018-11-01T00:11:45.410Z,21.62
2018-11-01T00:12:17.000Z,21.61
2018-11-01T00:12:48.602Z,21.60
2018-11-01T00:13:20.206Z,21.60
2018-11-01T00:13:51.810Z,21.60
2018-11-01T00:14:23.386Z,21.59
2018-11-01T00:14:54.992Z,21.58
2018-11-01T00:15:26.587Z,21.58
2018-11-01T00:15:58.176Z,21.58
2018-11-01T00:16:29.767Z,21.59
2018-11-01T00:17:01.358Z,21.57
2018-11-01T00:17:32.944Z,21.59
2018-11-01T00:18:04.542Z,21.60
2018-11-01T00:18:36.163Z,21.62
2018-11-01T00:19:07.780Z,21.63
2018-11-01T00:19:39.372Z,21.65
2018-11-01T00:20:10.966Z,21.65
2018-11-01T00:20:42.552Z,21.65
2018-11-01T00:21:14.141Z,21.66
2018-11-01T00:21:45.732Z,21.66
2018-11-01T00:22:17.344Z,21.66
2018-11-01T00:22:48.922Z,21.65
2018-11-01T00:23:20.575Z,21.66
2018-11-01T00:23:52.196Z,21.65
2018-11-01T00:24:23.789Z,21.64
2018-11-01T00:24:55.369Z,21.64
2018-11-01T00:25:26.975Z,21.63
2018-11-01T00:25:58.577Z,21.63
2018-11-01T00:26:30.185Z,21.62
2018-11-01T00:27:01.776Z,21.62
2018-11-01T00:27:33.373Z,21.60
2018-11-01T00:28:04.954Z,21.61
2018-11-01T00:28:36.544Z,21.59
2018-11-01T00:29:08.160Z,21.61
2018-11-01T00:29:39.748Z,21.60
2018-11-01T00:30:11.327Z,21.60
2018-11-01T00:30:42.911Z,21.60
2018-11-01T00:31:14.512Z,21.58
2018-11-01T00:31:46.090Z,21.59
2018-11-01T00:32:17.690Z,21.58
2018-11-01T00:32:49.265Z,21.59
2018-11-01T00:33:20.866Z,21.58
2018-11-01T00:33:52.483Z,21.57
2018-11-01T00:34:24.076Z,21.57
2018-11-01T00:34:55.664Z,21.56
2018-11-01T00:35:27.265Z,21.55
2018-11-01T00:35:58.869Z,21.55
2018-11-01T00:36:30.469Z,21.55
2018-11-01T00:37:02.055Z,21.54
2018-11-01T00:37:33.650Z,21.54
2018-11-01T00:38:05.226Z,21.53
2018-11-01T00:38:36.820Z,21.53
2018-11-01T00:39:08.435Z,21.53
2018-11-01T00:39:40.023Z,21.52
2018-11-01T00:40:11.602Z,21.51
2018-11-01T00:40:43.215Z,21.51
2018-11-01T00:41:14.820Z,21.51
2018-11-01T00:41:46.407Z,21.50
2018-11-01T00:42:18.010Z,21.50
2018-11-01T00:42:49.581Z,21.50
2018-11-01T00:43:21.168Z,21.48
2018-11-01T00:43:52.797Z,21.49
2018-11-01T00:44:24.416Z,21.49
2018-11-01T00:44:56.008Z,21.49
2018-11-01T00:45:27.600Z,21.48
2018-11-01T00:45:59.206Z,21.48
2018-11-01T00:46:30.818Z,21.48
2018-11-01T00:47:02.413Z,21.48
2018-11-01T00:47:34.015Z,21.47
2018-11-01T00:48:05.634Z,21.47
2018-11-01T00:48:37.223Z,21.47
2018-11-01T00:49:08.853Z,21.46
2018-11-01T00:49:40.453Z,21.46
2018-11-01T00:50:12.049Z,21.46
2018-11-01T00:50:43.650Z,21.46
2018-11-01T00:51:15.239Z,21.44
2018-11-01T00:51:46.815Z,21.46
2018-11-01T00:52:18.422Z,21.45
2018-11-01T00:52:50.016Z,21.45
2018-11-01T00:53:21.610Z,21.44
2018-11-01T00:53:53.214Z,21.45
2018-11-01T00:54:24.842Z,21.44
2018-11-01T00:54:56.453Z,21.44
2018-11-01T00:55:28.043Z,21.42
2018-11-01T00:55:59.718Z,21.43
2018-11-01T00:56:31.323Z,21.42
2018-11-01T00:57:02.916Z,21.41
2018-11-01T00:57:34.504Z,21.40
2018-11-01T00:58:06.092Z,21.40
2018-11-01T00:58:37.703Z,21.39
2018-11-01T00:59:09.338Z,21.38
2018-11-01T00:59:40.922Z,21.39
2018-11-01T01:00:12.511Z,21.38
2018-11-01T01:00:44.095Z,21.38
2018-11-01T01:01:15.689Z,21.38
2018-11-01T01:01:47.277Z,21.38
2018-11-01T01:02:18.874Z,21.38
2018-11-01T01:02:50.484Z,21.38
2018-11-01T01:03:22.075Z,21.38
2018-11-01T01:03:53.659Z,21.38
2018-11-01T01:04:25.286Z,21.38
2018-11-01T01:04:56.882Z,21.37
2018-11-01T01:05:28.457Z,21.37
2018-11-01T01:06:00.034Z,21.37
2018-11-01T01:06:31.629Z,21.39
2018-11-01T01:07:03.220Z,21.39
2018-11-01T01:07:34.802Z,21.37
2018-11-01T01:08:06.388Z,21.40
2018-11-01T01:08:37.990Z,21.39
2018-11-01T01:09:09.609Z,21.38
2018-11-01T01:09:41.195Z,21.37
2018-11-01T01:10:12.794Z,21.38
2018-11-01T01:10:44.387Z,21.37
2018-11-01T01:11:15.990Z,21.37
2018-11-01T01:11:47.576Z,21.36
2018-11-01T01:12:19.167Z,21.35
2018-11-01T01:12:50.772Z,21.35
2018-11-01T01:13:22.371Z,21.34
2018-11-01T01:13:53.969Z,21.33
2018-11-01T01:14:25.584Z,21.33
2018-11-01T01:14:57.177Z,21.33
2018-11-01T01:15:28.782Z,21.32
2018-11-01T01:16:00.385Z,21.32
2018-11-01T01:16:31.990Z,21.32
2018-11-01T01:17:03.602Z,21.32
2018-11-01T01:17:35.200Z,21.33
2018-11-01T01:18:06.806Z,21.32
2018-11-01T01:18:38.396Z,21.33
2018-11-01T01:19:10.010Z,21.32
2018-11-01T01:19:41.626Z,21.33
2018-11-01T01:20:13.226Z,21.33
2018-11-01T01:20:44.817Z,21.33
2018-11-01T01:21:16.418Z,21.33
2018-11-01T01:21:48.028Z,21.33
2018-11-01T01:22:19.624Z,21.33
2018-11-01T01:22:51.226Z,21.33
2018-11-01T01:23:22.816Z,21.33
2018-11-01T01:23:54.403Z,21.33
2018-11-01T01:24:26.016Z,21.32
2018-11-01T01:24:57.613Z,21.32
2018-11-01T01:25:29.203Z,21.32
2018-11-01T01:26:00.809Z,21.30
2018-11-01T01:26:32.423Z,21.30
2018-11-01T01:27:04.034Z,21.31
2018-11-01T01:27:35.660Z,21.31
2018-11-01T01:28:07.252Z,21.30
2018-11-01T01:28:38.847Z,21.31
2018-11-01T01:29:10.460Z,21.30
2018-11-01T01:29:42.057Z,21.30
2018-11-01T01:30:13.647Z,21.30
2018-11-01T01:30:45.236Z,21.30
2018-11-01T01:31:16.821Z,21.27
2018-11-01T01:31:48.409Z,21.29
2018-11-01T01:32:20.010Z,21.29
2018-11-01T01:32:51.599Z,21.28
2018-11-01T01:33:23.185Z,21.28
2018-11-01T01:33:54.786Z,21.28
2018-11-01T01:34:26.461Z,21.29
2018-11-01T01:34:58.040Z,21.28
2018-11-01T01:35:29.618Z,21.28
2018-11-01T01:36:01.223Z,21.28
2018-11-01T01:36:32.812Z,21.28
2018-11-01T01:37:04.409Z,21.27
2018-11-01T01:37:36.000Z,21.27
2018-11-01T01:38:07.602Z,21.27
2018-11-01T01:38:39.189Z,21.27
2018-11-01T01:39:10.790Z,21.26
2018-11-01T01:39:42.381Z,21.26
2018-11-01T01:40:13.971Z,21.26
2018-11-01T01:40:45.578Z,21.26
2018-11-01T01:41:17.182Z,21.27
2018-11-01T01:41:48.779Z,21.26
2018-11-01T01:42:20.382Z,21.29
2018-11-01T01:42:51.971Z,21.29
2018-11-01T01:43:23.574Z,21.29
2018-11-01T01:43:55.164Z,21.28
2018-11-01T01:44:26.783Z,21.27
2018-11-01T01:44:58.382Z,21.27
2018-11-01T01:45:29.985Z,21.27
2018-11-01T01:46:01.582Z,21.28
2018-11-01T01:46:33.186Z,21.29
2018-11-01T01:47:04.798Z,21.32
2018-11-01T01:47:36.401Z,21.34
2018-11-01T01:48:07.991Z,21.37
2018-11-01T01:48:39.577Z,21.39
2018-11-01T01:49:11.164Z,21.39
2018-11-01T01:49:42.752Z,21.43
2018-11-01T01:50:14.385Z,21.45
2018-11-01T01:50:46.012Z,21.45
2018-11-01T01:51:17.600Z,21.46
2018-11-01T01:51:49.201Z,21.48
2018-11-01T01:52:20.792Z,21.48
2018-11-01T01:52:52.389Z,21.47
2018-11-01T01:53:23.994Z,21.46
2018-11-01T01:53:55.590Z,21.44
2018-11-01T01:54:27.207Z,21.42
2018-11-01T01:54:58.786Z,21.40
2018-11-01T01:55:30.380Z,21.39
2018-11-01T01:56:01.972Z,21.39
2018-11-01T01:56:33.574Z,21.38
2018-11-01T01:57:05.164Z,21.38
2018-11-01T01:57:36.748Z,21.39
2018-11-01T01:58:08.336Z,21.22
2018-11-01T01:58:39.909Z,21.42
2018-11-01T01:59:11.626Z,21.43
2018-11-01T01:59:43.229Z,21.44
2018-11-01T02:00:14.816Z,21.45
2018-11-01T02:00:46.407Z,21.46
2018-11-01T02:01:17.997Z,21.46
2018-11-01T02:01:49.598Z,21.45
2018-11-01T02:02:21.196Z,21.44
2018-11-01T02:02:52.797Z,21.41
2018-11-01T02:03:24.388Z,21.42
2018-11-01T02:03:55.980Z,21.40
2018-11-01T02:04:27.609Z,21.40
2018-11-01T02:04:59.197Z,21.39
2018-11-01T02:05:30.774Z,21.37
2018-11-01T02:06:02.385Z,21.37
2018-11-01T02:06:33.997Z,21.36
2018-11-01T02:07:05.602Z,21.35
2018-11-01T02:07:37.191Z,21.34
2018-11-01T02:08:08.792Z,21.34
2018-11-01T02:08:40.375Z,21.33
2018-11-01T02:09:11.964Z,21.31
2018-11-01T02:09:43.594Z,21.32
2018-11-01T02:10:15.187Z,21.31
2018-11-01T02:10:46.792Z,21.31
2018-11-01T02:11:18.398Z,21.29
2018-11-01T02:11:50.044Z,21.29
2018-11-01T02:12:21.603Z,21.30
2018-11-01T02:12:53.192Z,21.29
2018-11-01T02:13:24.779Z,21.30
2018-11-01T02:13:56.382Z,21.29
2018-11-01T02:14:27.962Z,21.29
2018-11-01T02:14:59.969Z,21.29
2018-11-01T02:15:31.568Z,21.28
2018-11-01T02:16:03.170Z,21.27
2018-11-01T02:16:34.778Z,21.28
2018-11-01T02:17:06.371Z,21.28
2018-11-01T02:17:37.976Z,21.27
2018-11-01T02:18:09.599Z,21.27
2018-11-01T02:18:41.426Z,21.27
2018-11-01T02:19:13.149Z,21.27
2018-11-01T02:19:44.763Z,21.24
2018-11-01T02:20:16.340Z,21.27
2018-11-01T02:20:47.942Z,21.27
2018-11-01T02:21:19.531Z,21.27
2018-11-01T02:21:51.138Z,21.27
2018-11-01T02:22:22.714Z,21.27
2018-11-01T02:22:54.294Z,21.27
2018-11-01T02:23:25.880Z,21.27
2018-11-01T02:23:57.458Z,21.27
2018-11-01T02:24:29.062Z,21.25
2018-11-01T02:25:00.666Z,21.25
2018-11-01T02:25:32.251Z,21.25
2018-11-01T02:26:03.849Z,21.24
2018-11-01T02:26:35.455Z,21.25
2018-11-01T02:27:07.044Z,21.24
2018-11-01T02:27:38.632Z,21.24
2018-11-01T02:28:10.228Z,21.24
2018-11-01T02:28:41.833Z,21.22
2018-11-01T02:29:13.426Z,21.22
2018-11-01T02:29:45.039Z,21.22
2018-11-01T02:30:16.637Z,21.20
2018-11-01T02:30:48.242Z,21.21
2018-11-01T02:31:19.838Z,21.21
2018-11-01T02:31:51.445Z,21.21
2018-11-01T02:32:23.044Z,21.12
2018-11-01T02:32:54.654Z,21.22
2018-11-01T02:33:26.249Z,21.22
2018-11-01T02:33:57.857Z,21.23
2018-11-01T02:34:29.452Z,21.24
2018-11-01T02:35:01.078Z,21.24
2018-11-01T02:35:32.687Z,21.24
2018-11-01T02:36:04.276Z,21.24
2018-11-01T02:36:35.849Z,21.23
2018-11-01T02:37:07.454Z,21.23
2018-11-01T02:37:39.042Z,21.23
2018-11-01T02:38:10.651Z,21.23
2018-11-01T02:38:42.395Z,21.22
2018-11-01T02:39:13.887Z,21.20
2018-11-01T02:39:45.504Z,21.20
2018-11-01T02:40:17.101Z,21.20
2018-11-01T02:40:48.682Z,21.19
2018-11-01T02:41:20.283Z,21.20
2018-11-01T02:41:51.882Z,21.19
2018-11-01T02:42:23.462Z,21.17
2018-11-01T02:42:55.062Z,21.18
2018-11-01T02:43:26.664Z,21.18
2018-11-01T02:43:58.239Z,21.17
2018-11-01T02:44:29.852Z,21.16
2018-11-01T02:45:01.472Z,21.17
2018-11-01T02:45:33.060Z,21.15
2018-11-01T02:46:04.654Z,21.15
2018-11-01T02:46:36.240Z,21.16
2018-11-01T02:47:07.822Z,21.17
2018-11-01T02:47:39.411Z,21.19
2018-11-01T02:48:11.014Z,21.22
2018-11-01T02:48:42.607Z,21.23
2018-11-01T02:49:14.246Z,21.23
2018-11-01T02:49:45.847Z,21.25
2018-11-01T02:50:17.518Z,21.26
2018-11-01T02:50:49.083Z,21.26
2018-11-01T02:51:20.682Z,21.26
2018-11-01T02:51:52.273Z,21.26
2018-11-01T02:52:23.873Z,21.26
2018-11-01T02:52:55.478Z,21.26
2018-11-01T02:53:27.082Z,21.26
2018-11-01T02:53:58.658Z,21.30
2018-11-01T02:54:30.257Z,21.27
2018-11-01T02:55:01.864Z,21.24
2018-11-01T02:55:33.466Z,21.20
2018-11-01T02:56:05.056Z,21.17
2018-11-01T02:56:36.656Z,21.14
2018-11-01T02:57:08.239Z,21.10
2018-11-01T02:57:39.844Z,20.99
2018-11-01T02:58:11.446Z,21.00
2018-11-01T02:58:43.054Z,21.02
2018-11-01T02:59:14.660Z,21.04
2018-11-01T02:59:46.318Z,21.06
2018-11-01T03:00:17.880Z,21.08
2018-11-01T03:00:49.472Z,21.10
2018-11-01T03:01:21.078Z,21.12
2018-11-01T03:01:52.680Z,21.13
2018-11-01T03:02:24.276Z,21.15
2018-11-01T03:02:55.863Z,21.15
2018-11-01T03:03:27.451Z,21.15
2018-11-01T03:03:59.054Z,21.16
2018-11-01T03:04:30.643Z,21.16
2018-11-01T03:05:02.275Z,21.17
2018-11-01T03:05:33.879Z,21.17
2018-11-01T03:06:05.476Z,21.17
2018-11-01T03:06:37.078Z,21.17
2018-11-01T03:07:08.685Z,21.17
2018-11-01T03:07:40.287Z,21.17
2018-11-01T03:08:11.893Z,21.17
2018-11-01T03:08:43.495Z,21.17
2018-11-01T03:09:15.096Z,21.17
2018-11-01T03:09:46.684Z,21.17
2018-11-01T03:10:18.305Z,21.18
2018-11-01T03:10:49.910Z,21.19
2018-11-01T03:11:21.503Z,21.19
2018-11-01T03:11:53.082Z,21.19
2018-11-01T03:12:24.677Z,21.20
2018-11-01T03:12:56.303Z,21.19
2018-11-01T03:13:27.903Z,21.19
2018-11-01T03:13:59.510Z,21.19
2018-11-01T03:14:31.104Z,21.18
2018-11-01T03:15:02.735Z,21.18
2018-11-01T03:15:34.324Z,21.18
2018-11-01T03:16:05.925Z,21.17
2018-11-01T03:16:37.538Z,21.18
2018-11-01T03:17:09.220Z,21.20
2018-11-01T03:17:40.760Z,21.20
2018-11-01T03:18:12.342Z,21.22
2018-11-01T03:18:43.928Z,21.21
2018-11-01T03:19:15.659Z,21.23
2018-11-01T03:19:47.294Z,21.23
2018-11-01T03:20:18.921Z,21.23
2018-11-01T03:20:50.521Z,21.23
2018-11-01T03:21:22.121Z,21.22
2018-11-01T03:21:53.716Z,21.22
2018-11-01T03:22:25.317Z,21.21
2018-11-01T03:22:56.913Z,21.19
2018-11-01T03:23:28.495Z,21.18
2018-11-01T03:24:00.101Z,20.98
2018-11-01T03:24:31.698Z,21.16
2018-11-01T03:25:03.326Z,21.15
2018-11-01T03:25:34.902Z,21.15
2018-11-01T03:26:06.488Z,21.14
2018-11-01T03:26:38.176Z,21.13
2018-11-01T03:27:09.711Z,21.12
2018-11-01T03:27:41.310Z,21.12
2018-11-01T03:28:12.908Z,21.12
2018-11-01T03:28:44.503Z,21.12
2018-11-01T03:29:16.092Z,21.12
2018-11-01T03:29:47.703Z,21.11
2018-11-01T03:30:19.319Z,21.11
2018-11-01T03:30:50.898Z,21.10
2018-11-01T03:31:22.483Z,20.91
2018-11-01T03:31:54.083Z,21.10
2018-11-01T03:32:25.702Z,21.10
2018-11-01T03:32:57.296Z,21.09
2018-11-01T03:33:28.887Z,21.09
2018-11-01T03:34:00.471Z,21.09
2018-11-01T03:34:32.066Z,21.09
2018-11-01T03:35:03.694Z,21.09
2018-11-01T03:35:35.307Z,21.08
2018-11-01T03:36:06.918Z,21.08
2018-11-01T03:36:38.522Z,21.08
2018-11-01T03:37:10.108Z,21.08
2018-11-01T03:37:41.700Z,21.08
2018-11-01T03:38:13.946Z,21.08
2018-11-01T03:38:45.915Z,21.09
2018-11-01T03:39:17.494Z,21.08
2018-11-01T03:39:49.103Z,21.08
2018-11-01T03:40:20.727Z,21.08
2018-11-01T03:40:52.343Z,21.09
2018-11-01T03:41:23.940Z,21.10
2018-11-01T03:41:55.528Z,21.09
2018-11-01T03:42:27.138Z,21.11
2018-11-01T03:42:58.727Z,21.11
2018-11-01T03:43:30.319Z,21.10
2018-11-01T03:44:01.923Z,21.11
2018-11-01T03:44:33.526Z,21.12
2018-11-01T03:45:05.170Z,21.14
2018-11-01T03:45:36.819Z,21.14
2018-11-01T03:46:08.362Z,21.15
2018-11-01T03:46:39.961Z,21.16
2018-11-01T03:47:11.671Z,21.17
2018-11-01T03:47:43.269Z,21.17
2018-11-01T03:48:14.870Z,21.17
2018-11-01T03:48:46.459Z,21.18
2018-11-01T03:49:18.048Z,21.19
2018-11-01T03:49:49.626Z,21.17
2018-11-01T03:50:21.254Z,21.21
2018-11-01T03:50:52.859Z,21.22
2018-11-01T03:51:24.462Z,21.24
2018-11-01T03:51:56.081Z,21.24
2018-11-01T03:52:27.713Z,21.25
2018-11-01T03:52:59.318Z,21.26
2018-11-01T03:53:30.988Z,21.28
2018-11-01T03:54:02.556Z,21.30
2018-11-01T03:54:34.198Z,21.11
2018-11-01T03:55:05.800Z,21.29
2018-11-01T03:55:37.412Z,21.30
2018-11-01T03:56:09.018Z,21.29
2018-11-01T03:56:40.605Z,21.29
2018-11-01T03:57:12.200Z,21.28
2018-11-01T03:57:43.789Z,21.28
2018-11-01T03:58:15.394Z,21.29
2018-11-01T03:58:46.984Z,21.29
2018-11-01T03:59:18.576Z,21.27
2018-11-01T03:59:50.189Z,21.27
2018-11-01T04:00:21.834Z,21.27
2018-11-01T04:00:53.432Z,21.26
2018-11-01T04:01:25.029Z,21.24
2018-11-01T04:01:56.616Z,21.24
2018-11-01T04:02:28.217Z,21.24
2018-11-01T04:02:59.826Z,21.23
2018-11-01T04:03:31.448Z,21.22
2018-11-01T04:04:03.051Z,21.21
2018-11-01T04:04:34.644Z,21.21
2018-11-01T04:05:06.233Z,21.20
2018-11-01T04:05:37.856Z,21.20
2018-11-01T04:06:09.430Z,21.19
2018-11-01T04:06:41.016Z,21.20
2018-11-01T04:07:12.595Z,21.20
2018-11-01T04:07:44.216Z,21.21
2018-11-01T04:08:15.808Z,21.21
2018-11-01T04:08:47.400Z,21.21
2018-11-01T04:09:19.004Z,21.21
2018-11-01T04:09:50.596Z,21.22
2018-11-01T04:10:22.229Z,21.21
2018-11-01T04:10:53.820Z,21.20
2018-11-01T04:11:25.422Z,21.20
2018-11-01T04:11:57.002Z,21.19
2018-11-01T04:12:28.588Z,21.19
2018-11-01T04:13:00.195Z,21.19
2018-11-01T04:13:31.788Z,21.18
2018-11-01T04:14:03.404Z,21.17
2018-11-01T04:14:35.000Z,21.17
2018-11-01T04:15:06.694Z,21.17
2018-11-01T04:15:38.254Z,21.16
2018-11-01T04:16:09.863Z,21.15
2018-11-01T04:16:41.500Z,21.15
2018-11-01T04:17:13.104Z,21.15
2018-11-01T04:17:44.687Z,21.15
2018-11-01T04:18:16.293Z,21.14
2018-11-01T04:18:47.909Z,21.14
2018-11-01T04:19:19.520Z,21.13
2018-11-01T04:19:51.124Z,21.13
2018-11-01T04:20:22.755Z,21.13
2018-11-01T04:20:54.357Z,21.12
2018-11-01T04:21:25.947Z,21.12
2018-11-01T04:21:57.532Z,21.11
2018-11-01T04:22:29.125Z,21.10
2018-11-01T04:23:00.799Z,21.10
2018-11-01T04:23:32.496Z,21.09
2018-11-01T04:24:04.016Z,21.08
2018-11-01T04:24:35.607Z,21.08
2018-11-01T04:25:07.194Z,21.07
2018-11-01T04:25:38.817Z,21.06
2018-11-01T04:26:10.420Z,21.06
2018-11-01T04:26:42.008Z,21.07
2018-11-01T04:27:13.610Z,21.06
2018-11-01T04:27:45.239Z,21.06
2018-11-01T04:28:16.836Z,21.06
2018-11-01T04:28:48.520Z,21.04
2018-11-01T04:29:20.075Z,21.06
2018-11-01T04:29:51.677Z,21.05
2018-11-01T04:30:23.258Z,21.04
2018-11-01T04:30:54.862Z,21.04
2018-11-01T04:31:26.469Z,21.03
2018-11-01T04:31:58.073Z,21.04
2018-11-01T04:32:29.683Z,21.03
2018-11-01T04:33:01.331Z,21.03
2018-11-01T04:33:32.954Z,21.03
2018-11-01T04:34:04.518Z,21.00
2018-11-01T04:34:36.113Z,21.02
2018-11-01T04:35:07.694Z,21.02
2018-11-01T04:35:39.357Z,21.02
2018-11-01T04:36:10.943Z,21.01
2018-11-01T04:36:42.528Z,21.01
2018-11-01T04:37:14.121Z,21.00
2018-11-01T04:37:45.722Z,21.00
2018-11-01T04:38:17.329Z,21.00
2018-11-01T04:38:48.923Z,21.00
2018-11-01T04:39:20.534Z,20.99
2018-11-01T04:39:52.124Z,20.98
2018-11-01T04:40:23.715Z,20.99
2018-11-01T04:40:55.371Z,20.98
2018-11-01T04:41:26.945Z,20.98
2018-11-01T04:41:58.532Z,20.98
2018-11-01T04:42:30.120Z,20.98
2018-11-01T04:43:01.748Z,20.98
2018-11-01T04:43:33.354Z,20.99
2018-11-01T04:44:04.994Z,20.99
2018-11-01T04:44:36.591Z,20.99
2018-11-01T04:45:08.237Z,20.98
2018-11-01T04:45:50.027Z,20.98
2018-11-01T04:46:21.716Z,20.98
2018-11-01T04:46:53.328Z,20.98
2018-11-01T04:47:24.938Z,20.98
2018-11-01T04:47:56.585Z,20.98
2018-11-01T04:48:28.181Z,20.98
2018-11-01T04:48:59.778Z,20.97
2018-11-01T04:49:31.367Z,20.96
2018-11-01T04:50:02.979Z,20.97
2018-11-01T04:50:34.602Z,20.98
2018-11-01T04:51:06.206Z,20.97
2018-11-01T04:51:37.806Z,20.97
2018-11-01T04:52:09.383Z,20.96
2018-11-01T04:52:43.036Z,20.96
2018-11-01T04:53:14.771Z,20.96
2018-11-01T04:53:46.383Z,20.96
2018-11-01T04:54:17.981Z,20.95
2018-11-01T04:54:49.567Z,20.95
2018-11-01T04:55:21.580Z,20.95
2018-11-01T04:55:53.185Z,20.95
2018-11-01T04:56:24.812Z,20.95
2018-11-01T04:56:56.409Z,20.95
2018-11-01T04:57:28.014Z,20.94
2018-11-01T04:57:59.608Z,20.94
2018-11-01T04:58:31.195Z,20.94
2018-11-01T04:59:02.793Z,20.93
2018-11-01T04:59:34.396Z,20.73
2018-11-01T05:00:05.999Z,20.92
2018-11-01T05:00:37.592Z,20.93
2018-11-01T05:01:09.214Z,20.95
2018-11-01T05:01:40.823Z,20.95
2018-11-01T05:02:12.411Z,20.97
2018-11-01T05:02:44.353Z,20.96
2018-11-01T05:03:15.930Z,20.95
2018-11-01T05:03:47.578Z,20.98
2018-11-01T05:04:19.182Z,21.00
2018-11-01T05:04:50.842Z,21.00
2018-11-01T05:05:22.412Z,21.01
2018-11-01T05:05:54.031Z,21.03
2018-11-01T05:06:25.616Z,20.93
2018-11-01T05:06:57.247Z,21.05
2018-11-01T05:07:28.859Z,20.86
2018-11-01T05:08:00.456Z,21.03
2018-11-01T05:08:32.403Z,21.03
2018-11-01T05:09:04.011Z,21.03
2018-11-01T05:09:35.600Z,21.01
2018-11-01T05:10:07.188Z,21.02
2018-11-01T05:10:38.766Z,21.02
2018-11-01T05:11:10.398Z,21.01
2018-11-01T05:11:42.002Z,21.02
2018-11-01T05:12:13.595Z,21.04
2018-11-01T05:12:45.209Z,21.04
2018-11-01T05:13:16.813Z,21.05
2018-11-01T05:13:48.406Z,21.05
2018-11-01T05:14:20.018Z,21.04
2018-11-01T05:14:51.603Z,20.94
2018-11-01T05:15:23.224Z,21.04
2018-11-01T05:15:54.846Z,21.04
2018-11-01T05:16:26.435Z,21.03
2018-11-01T05:16:58.024Z,21.03
2018-11-01T05:17:29.621Z,21.03
2018-11-01T05:18:01.221Z,21.02
2018-11-01T05:18:32.830Z,21.02
2018-11-01T05:19:04.450Z,21.01
2018-11-01T05:19:36.046Z,21.01
2018-11-01T05:20:07.691Z,21.01
2018-11-01T05:20:39.282Z,20.98
2018-11-01T05:21:10.886Z,21.00
2018-11-01T05:21:42.485Z,21.00
2018-11-01T05:22:14.094Z,21.00
2018-11-01T05:22:45.697Z,21.00
2018-11-01T05:23:17.290Z,21.01
2018-11-01T05:23:48.894Z,21.02
2018-11-01T05:24:20.484Z,21.01
2018-11-01T05:24:52.081Z,20.74
2018-11-01T05:25:23.672Z,21.04
2018-11-01T05:25:55.333Z,21.04
2018-11-01T05:26:26.920Z,21.04
2018-11-01T05:26:58.498Z,21.04
2018-11-01T05:27:30.074Z,21.02
2018-11-01T05:28:01.661Z,21.04
2018-11-01T05:28:33.242Z,21.05
2018-11-01T05:29:04.832Z,21.05
2018-11-01T05:29:36.486Z,21.06
2018-11-01T05:30:08.038Z,21.05
2018-11-01T05:30:39.629Z,21.05
2018-11-01T05:31:11.243Z,21.06
2018-11-01T05:31:42.833Z,21.06
2018-11-01T05:32:14.429Z,21.07
2018-11-01T05:32:46.481Z,21.08
2018-11-01T05:33:18.086Z,21.11
2018-11-01T05:33:49.676Z,21.11
2018-11-01T05:34:21.346Z,21.12
2018-11-01T05:34:52.904Z,21.13
2018-11-01T05:35:24.522Z,21.14
2018-11-01T05:35:56.112Z,21.15
2018-11-01T05:36:27.718Z,21.16
2018-11-01T05:36:59.327Z,21.16
2018-11-01T05:37:30.919Z,21.16
2018-11-01T05:38:02.538Z,21.18
2018-11-01T05:38:34.140Z,21.19
2018-11-01T05:39:05.742Z,21.20
2018-11-01T05:39:37.337Z,21.22
2018-11-01T05:40:08.938Z,21.24
2018-11-01T05:40:40.529Z,21.26
2018-11-01T05:41:12.144Z,21.29
2018-11-01T05:41:43.731Z,21.32
2018-11-01T05:42:15.338Z,21.33
2018-11-01T05:42:46.947Z,21.33
2018-11-01T05:43:18.551Z,21.35
2018-11-01T05:43:50.139Z,21.35
2018-11-01T05:44:21.727Z,21.36
2018-11-01T05:44:53.338Z,21.36
2018-11-01T05:45:24.915Z,21.37
2018-11-01T05:45:56.511Z,21.37
2018-11-01T05:46:28.118Z,21.36
2018-11-01T05:46:59.718Z,21.37
2018-11-01T05:47:31.306Z,21.36
2018-11-01T05:48:02.904Z,21.36
2018-11-01T05:48:34.502Z,21.36
2018-11-01T05:49:06.103Z,21.36
2018-11-01T05:49:37.696Z,21.37
2018-11-01T05:50:09.274Z,21.39
2018-11-01T05:50:40.878Z,21.39
2018-11-01T05:51:12.482Z,21.37
2018-11-01T05:51:44.114Z,21.38
2018-11-01T05:52:15.698Z,21.37
2018-11-01T05:52:47.284Z,21.35
2018-11-01T05:53:18.872Z,21.37
2018-11-01T05:53:50.487Z,21.36
2018-11-01T05:54:22.080Z,21.35
2018-11-01T05:54:53.684Z,21.34
2018-11-01T05:55:25.272Z,21.34
2018-11-01T05:55:56.874Z,21.34
2018-11-01T05:56:28.450Z,21.34
2018-11-01T05:57:00.068Z,21.33
2018-11-01T05:57:31.664Z,21.32
2018-11-01T05:58:03.280Z,21.32
2018-11-01T05:58:34.882Z,21.31
2018-11-01T05:59:06.490Z,21.30
2018-11-01T05:59:38.069Z,21.29
2018-11-01T06:00:09.671Z,21.29
2018-11-01T06:00:41.264Z,21.29
2018-11-01T06:01:12.856Z,21.27
2018-11-01T06:01:44.476Z,21.25
2018-11-01T06:02:16.072Z,21.24
2018-11-01T06:02:47.671Z,21.24
2018-11-01T06:03:19.264Z,21.22
2018-11-01T06:03:50.852Z,21.21
2018-11-01T06:04:22.439Z,21.20
2018-11-01T06:04:54.038Z,21.18
2018-11-01T06:05:25.648Z,21.18
2018-11-01T06:05:57.266Z,21.17
2018-11-01T06:06:28.859Z,21.15
2018-11-01T06:07:00.482Z,21.12
2018-11-01T06:07:32.076Z,21.13
2018-11-01T06:08:03.668Z,21.12
2018-11-01T06:08:35.276Z,21.12
2018-11-01T06:09:06.878Z,21.10
2018-11-01T06:09:38.454Z,21.09
2018-11-01T06:10:10.043Z,21.06
2018-11-01T06:10:41.642Z,21.07
2018-11-01T06:11:13.241Z,21.07
2018-11-01T06:11:44.870Z,21.06
2018-11-01T06:12:16.552Z,21.05
2018-11-01T06:12:48.128Z,21.04
2018-11-01T06:13:19.734Z,21.05
2018-11-01T06:13:51.328Z,21.03
2018-11-01T06:14:22.916Z,21.03
2018-11-01T06:14:54.494Z,21.03
2018-11-01T06:15:26.083Z,21.02
2018-11-01T06:15:57.672Z,21.00
2018-11-01T06:16:29.269Z,21.01
2018-11-01T06:17:00.878Z,21.01
2018-11-01T06:17:32.478Z,21.00
2018-11-01T06:18:04.085Z,20.99
2018-11-01T06:18:35.673Z,20.98
2018-11-01T06:19:07.274Z,20.98
2018-11-01T06:19:38.881Z,20.98
2018-11-01T06:20:10.458Z,20.98
2018-11-01T06:20:42.120Z,20.98
2018-11-01T06:21:13.657Z,20.97
2018-11-01T06:21:45.252Z,20.96
2018-11-01T06:22:16.836Z,20.96
2018-11-01T06:22:48.424Z,20.95
2018-11-01T06:23:20.017Z,20.95
2018-11-01T06:23:51.617Z,20.94
2018-11-01T06:24:23.226Z,20.94
2018-11-01T06:24:54.833Z,20.93
2018-11-01T06:25:26.447Z,20.94
2018-11-01T06:25:58.054Z,20.93
2018-11-01T06:26:29.636Z,20.93
2018-11-01T06:27:01.266Z,20.93
2018-11-01T06:27:32.863Z,20.92
2018-11-01T06:28:04.451Z,20.91
2018-11-01T06:28:36.052Z,20.91
2018-11-01T06:29:07.994Z,20.91
2018-11-01T06:29:39.599Z,20.92
2018-11-01T06:30:11.198Z,20.91
2018-11-01T06:30:42.798Z,20.90
2018-11-01T06:31:14.400Z,20.90
2018-11-01T06:31:45.989Z,20.90
2018-11-01T06:32:17.586Z,20.90
2018-11-01T06:32:49.997Z,20.89
2018-11-01T06:33:21.607Z,20.89
2018-11-01T06:33:53.200Z,20.89
2018-11-01T06:34:24.806Z,20.88
2018-11-01T06:34:56.396Z,20.86
2018-11-01T06:35:28.004Z,20.87
2018-11-01T06:35:59.610Z,20.86
2018-11-01T06:36:31.210Z,20.86
2018-11-01T06:37:02.844Z,20.86
2018-11-01T06:37:34.458Z,20.86
2018-11-01T06:38:06.062Z,20.86
2018-11-01T06:38:37.697Z,20.85
2018-11-01T06:39:09.297Z,20.86
2018-11-01T06:39:40.893Z,20.85
2018-11-01T06:40:12.498Z,20.85
2018-11-01T06:40:44.073Z,20.85
2018-11-01T06:41:15.660Z,20.84
2018-11-01T06:41:47.266Z,20.84
2018-11-01T06:42:18.850Z,20.83
2018-11-01T06:42:50.430Z,20.84
2018-11-01T06:43:22.015Z,20.83
2018-11-01T06:43:53.610Z,20.83
2018-11-01T06:44:25.218Z,20.83
2018-11-01T06:44:56.858Z,20.83
2018-11-01T06:45:28.463Z,20.82
2018-11-01T06:46:00.070Z,20.82
2018-11-01T06:46:31.663Z,20.82
2018-11-01T06:47:03.274Z,20.82